createdAt,value
2022-11-29T00:04:45.695Z,21.52
2022-11-29T00:09:47.437Z,21.60
2022-11-29T00:14:49.012Z,22.60
2022-11-29T00:19:50.574Z,21.75
2022-11-29T00:24:52.130Z,20.77
2022-11-29T00:29:53.690Z,21.45
2022-11-29T00:34:59.250Z,23.58
2022-11-29T00:40:01.098Z,22.10
2022-11-29T00:45:02.734Z,20.45
2022-11-29T00:50:06.115Z,21.45
2022-11-29T00:55:08.046Z,20.48
2022-11-29T01:00:10.085Z,21.17
2022-11-29T01:05:11.647Z,22.67
2022-11-29T01:10:13.246Z,21.30
2022-11-29T01:15:14.826Z,23.90
2022-11-29T01:20:16.455Z,22.90
2022-11-29T01:25:19.319Z,23.67
2022-11-29T01:30:21.358Z,22.53
2022-11-29T01:35:22.893Z,23.13
2022-11-29T01:40:24.415Z,23.67
2022-11-29T01:45:26.619Z,23.17
2022-11-29T01:50:28.203Z,27.70
2022-11-29T01:55:29.901Z,24.88
2022-11-29T02:00:32.424Z,25.75
2022-11-29T02:05:34.194Z,25.60
2022-11-29T02:10:58.695Z,22.67
2022-11-29T02:16:08.001Z,23.90
2022-11-29T02:21:34.300Z,27.30
2022-11-29T02:26:54.670Z,23.80
2022-11-29T02:32:14.432Z,22.77
2022-11-29T02:37:34.284Z,23.30
2022-11-29T02:42:56.125Z,24.60
2022-11-29T02:48:14.108Z,24.87
2022-11-29T02:53:17.430Z,22.55
2022-11-29T02:58:31.606Z,24.20
2022-11-29T03:03:38.778Z,23.58
2022-11-29T03:08:52.045Z,24.53
2022-11-29T03:14:05.810Z,22.40
2022-11-29T03:19:36.024Z,23.95
2022-11-29T03:24:59.522Z,25.33
2022-11-29T03:30:04.127Z,25.23
2022-11-29T03:35:05.729Z,25.27
2022-11-29T03:40:15.664Z,24.60
2022-11-29T03:45:42.590Z,24.92
2022-11-29T03:50:54.167Z,24.80
2022-11-29T03:56:35.261Z,23.98
2022-11-29T04:01:42.512Z,23.00
2022-11-29T04:06:47.265Z,23.73
2022-11-29T04:12:04.034Z,24.83
2022-11-29T04:17:24.106Z,20.00
2022-11-29T04:22:56.697Z,25.55
2022-11-29T04:28:04.047Z,26.33
2022-11-29T04:33:24.286Z,23.60
2022-11-29T04:39:09.106Z,23.07
2022-11-29T04:44:37.052Z,22.47
2022-11-29T04:49:57.124Z,24.02
2022-11-29T04:55:29.419Z,23.77
2022-11-29T05:00:39.505Z,25.40
2022-11-29T05:05:48.061Z,24.60
2022-11-29T05:10:56.763Z,23.20
2022-11-29T05:16:22.474Z,23.95
2022-11-29T05:21:39.043Z,23.15
2022-11-29T05:26:54.655Z,22.92
2022-11-29T05:32:04.446Z,24.33
2022-11-29T05:37:22.046Z,23.70
2022-11-29T05:42:49.120Z,22.52
2022-11-29T05:48:21.729Z,22.45
2022-11-29T05:53:47.691Z,21.10
2022-11-29T05:59:28.346Z,21.83
2022-11-29T06:04:55.922Z,25.27
2022-11-29T06:10:12.341Z,20.85
2022-11-29T06:15:19.898Z,20.53
2022-11-29T06:20:53.751Z,20.60
2022-11-29T06:26:00.691Z,23.83
2022-11-29T06:31:10.485Z,21.83
2022-11-29T06:36:19.304Z,22.42
2022-11-29T06:41:22.854Z,23.70
2022-11-29T06:46:36.022Z,22.38
2022-11-29T06:51:40.637Z,22.92
2022-11-29T06:56:59.185Z,21.60
2022-11-29T07:02:28.028Z,21.03
2022-11-29T07:07:30.024Z,24.03
2022-11-29T07:12:31.980Z,21.23
2022-11-29T07:17:43.898Z,22.10
2022-11-29T07:23:07.044Z,19.85
2022-11-29T07:28:18.726Z,20.13
2022-11-29T07:33:52.663Z,21.50
2022-11-29T07:39:20.112Z,21.75
2022-11-29T07:44:30.447Z,23.48
2022-11-29T07:49:31.988Z,21.38
2022-11-29T07:54:33.579Z,21.25
2022-11-29T07:59:35.133Z,19.42
2022-11-29T08:04:41.302Z,20.98
2022-11-29T08:09:42.963Z,21.88
2022-11-29T08:14:44.760Z,20.97
2022-11-29T08:19:46.526Z,18.80
2022-11-29T08:24:48.433Z,19.25
2022-11-29T08:29:50.140Z,22.30
2022-11-29T08:34:51.814Z,19.80
2022-11-29T08:39:53.358Z,20.45
2022-11-29T08:44:54.909Z,16.77
2022-11-29T08:50:02.350Z,19.05
2022-11-29T08:55:04.070Z,18.33
2022-11-29T09:00:06.569Z,16.47
2022-11-29T09:05:09.026Z,15.57
2022-11-29T09:10:11.266Z,18.20
2022-11-29T09:15:13.001Z,17.87
2022-11-29T09:20:14.595Z,17.33
2022-11-29T09:25:16.257Z,15.85
2022-11-29T09:30:23.489Z,14.75
2022-11-29T09:35:25.597Z,15.18
2022-11-29T09:40:56.008Z,15.77
2022-11-29T09:46:04.436Z,16.45
2022-11-29T09:51:24.159Z,15.88
2022-11-29T09:56:41.391Z,14.55
2022-11-29T10:01:46.807Z,14.65
2022-11-29T10:06:56.785Z,17.95
2022-11-29T10:12:13.621Z,16.67
2022-11-29T10:17:40.133Z,16.48
2022-11-29T10:23:16.364Z,15.60
2022-11-29T10:28:21.066Z,17.33
2022-11-29T10:33:33.193Z,15.35
2022-11-29T10:38:34.736Z,15.45
2022-11-29T10:43:37.449Z,16.75
2022-11-29T10:48:39.015Z,17.63
2022-11-29T10:53:40.659Z,18.60
2022-11-29T10:59:03.233Z,16.80
2022-11-29T11:04:07.408Z,19.52
2022-11-29T11:09:35.718Z,17.63
2022-11-29T11:14:38.595Z,18.60
2022-11-29T11:19:40.259Z,17.35
2022-11-29T11:24:42.095Z,19.73
2022-11-29T11:29:44.401Z,20.03
2022-11-29T11:34:57.351Z,19.70
2022-11-29T11:40:25.676Z,19.23
2022-11-29T11:45:32.872Z,21.67
2022-11-29T11:50:46.761Z,20.70
2022-11-29T11:55:58.768Z,20.23
2022-11-29T12:01:12.498Z,19.63
2022-11-29T12:06:54.981Z,21.60
2022-11-29T12:12:00.491Z,21.45
2022-11-29T12:17:08.180Z,20.52
2022-11-29T12:22:14.276Z,21.73
2022-11-29T12:27:16.253Z,22.48
2022-11-29T12:32:51.757Z,19.05
2022-11-29T12:38:03.506Z,19.38
2022-11-29T12:43:13.160Z,20.67
2022-11-29T12:48:20.324Z,19.77
2022-11-29T12:53:42.998Z,22.00
2022-11-29T12:58:53.355Z,22.13
2022-11-29T13:04:21.872Z,20.27
2022-11-29T13:09:41.829Z,20.33
2022-11-29T13:14:50.828Z,21.80
2022-11-29T13:19:56.203Z,22.25
2022-11-29T13:25:01.144Z,21.38
2022-11-29T13:30:04.338Z,21.48
2022-11-29T13:35:21.673Z,22.77
2022-11-29T13:40:56.033Z,22.75
2022-11-29T13:46:20.262Z,25.40
2022-11-29T13:51:28.604Z,24.45
2022-11-29T13:56:42.618Z,23.48
2022-11-29T14:01:50.592Z,23.70
2022-11-29T14:07:03.284Z,23.30
2022-11-29T14:12:19.114Z,25.10
2022-11-29T14:17:51.474Z,23.35
2022-11-29T14:23:05.349Z,25.70
2022-11-29T14:28:13.170Z,22.55
2022-11-29T14:33:42.572Z,23.08
2022-11-29T14:39:04.893Z,22.45
2022-11-29T14:44:26.053Z,23.58
2022-11-29T14:49:28.893Z,24.60
2022-11-29T14:54:30.471Z,24.35
2022-11-29T14:59:51.651Z,24.33
2022-11-29T15:04:55.818Z,24.13
2022-11-29T15:10:03.959Z,26.02
2022-11-29T15:15:38.098Z,25.83
2022-11-29T15:20:55.491Z,25.73
2022-11-29T15:26:00.609Z,27.33
2022-11-29T15:31:04.846Z,26.65
2022-11-29T15:36:20.501Z,25.33
2022-11-29T15:41:29.246Z,28.52
2022-11-29T15:46:32.879Z,26.08
2022-11-29T15:51:36.588Z,29.42
2022-11-29T15:56:52.041Z,29.40
2022-11-29T16:01:55.986Z,27.42
2022-11-29T16:06:57.934Z,30.10
2022-11-29T16:12:01.090Z,30.50
2022-11-29T16:17:03.865Z,28.98
2022-11-29T16:22:23.983Z,29.50
2022-11-29T16:27:25.740Z,31.88
2022-11-29T16:32:30.048Z,34.33
2022-11-29T16:37:38.042Z,33.67
2022-11-29T16:42:40.057Z,28.13
2022-11-29T16:47:57.849Z,29.33
2022-11-29T16:53:37.396Z,29.67
2022-11-29T16:59:17.068Z,34.95
2022-11-29T17:04:01.391Z,28.83
2022-11-29T17:09:03.315Z,33.67
2022-11-29T17:14:04.876Z,30.02
2022-11-29T17:19:06.495Z,28.98
2022-11-29T17:24:12.811Z,28.02
2022-11-29T17:29:15.427Z,28.65
2022-11-29T17:34:17.077Z,28.70
2022-11-29T17:39:20.231Z,28.58
2022-11-29T17:44:21.915Z,27.08
2022-11-29T17:49:23.475Z,29.48
2022-11-29T17:54:25.102Z,29.63
2022-11-29T17:59:26.673Z,29.70
2022-11-29T18:04:28.203Z,29.08
2022-11-29T18:09:29.755Z,28.83
2022-11-29T18:14:31.488Z,29.57
2022-11-29T18:19:33.159Z,28.00
2022-11-29T18:24:34.748Z,28.35
2022-11-29T18:29:39.296Z,30.07
2022-11-29T18:34:41.143Z,32.13
2022-11-29T18:39:42.734Z,27.58
2022-11-29T18:44:44.801Z,29.93
2022-11-29T18:49:46.632Z,30.97
2022-11-29T18:54:48.480Z,29.43
2022-11-29T18:59:50.233Z,31.13
2022-11-29T19:04:51.803Z,32.80
2022-11-29T19:09:53.449Z,30.70
2022-11-29T19:14:55.509Z,30.95
2022-11-29T19:19:57.514Z,32.03
2022-11-29T19:24:59.144Z,30.15
2022-11-29T19:30:00.747Z,30.50
2022-11-29T19:35:02.404Z,31.57
2022-11-29T19:40:04.375Z,37.95
2022-11-29T19:45:17.192Z,32.37
2022-11-29T19:50:19.445Z,31.77
2022-11-29T19:55:20.999Z,29.80
2022-11-29T20:00:22.718Z,33.38
2022-11-29T20:05:24.416Z,35.47
2022-11-29T20:10:27.444Z,32.50
2022-11-29T20:15:29.037Z,34.10
2022-11-29T20:20:30.897Z,34.00
2022-11-29T20:25:33.686Z,32.83
2022-11-29T20:30:35.232Z,31.30
2022-11-29T20:35:36.924Z,30.73
2022-11-29T20:41:09.854Z,31.03
2022-11-29T20:46:11.677Z,31.30
2022-11-29T20:51:13.773Z,30.73
2022-11-29T20:56:15.480Z,28.15
2022-11-29T21:01:17.136Z,28.47
2022-11-29T21:06:18.817Z,31.23
2022-11-29T21:11:20.775Z,32.80
2022-11-29T21:16:29.464Z,27.57
2022-11-29T21:21:44.597Z,26.40
2022-11-29T21:26:55.378Z,25.52
2022-11-29T21:31:57.269Z,27.57
2022-11-29T21:36:59.824Z,27.53
2022-11-29T21:42:01.862Z,26.15
2022-11-29T21:47:03.475Z,26.10
2022-11-29T21:52:06.321Z,26.70
2022-11-29T21:57:07.879Z,24.10
2022-11-29T22:02:09.631Z,25.38
2022-11-29T22:07:11.255Z,24.98
2022-11-29T22:12:33.067Z,24.25
2022-11-29T22:17:34.373Z,24.40
2022-11-29T22:22:35.911Z,25.23
2022-11-29T22:27:37.467Z,25.20
2022-11-29T22:32:39.024Z,24.40
2022-11-29T22:37:41.301Z,24.23
2022-11-29T22:42:43.218Z,25.10
2022-11-29T22:47:44.775Z,22.90
2022-11-29T22:52:46.322Z,22.97
2022-11-29T22:57:47.910Z,24.25
2022-11-29T23:02:49.508Z,23.13
2022-11-29T23:07:54.664Z,25.37
2022-11-29T23:12:56.341Z,22.83
2022-11-29T23:17:57.889Z,22.88
2022-11-29T23:23:00.620Z,23.50
2022-11-29T23:28:02.172Z,24.63
2022-11-29T23:33:03.754Z,23.73
2022-11-29T23:38:06.150Z,21.33
2022-11-29T23:43:07.693Z,22.40
2022-11-29T23:48:09.276Z,23.55
2022-11-29T23:53:13.158Z,21.75
2022-11-29T23:58:14.792Z,20.42
